createdAt,value
2023-04-25T00:02:05.053Z,10.88
2023-04-25T00:04:34.811Z,5.53
2023-04-25T00:07:02.601Z,6.32
2023-04-25T00:09:29.751Z,5.90
2023-04-25T00:11:57.125Z,6.63
2023-04-25T00:14:24.217Z,8.07
2023-04-25T00:16:52.772Z,6.07
2023-04-25T00:19:19.949Z,6.00
2023-04-25T00:21:47.346Z,4.38
2023-04-25T00:24:14.639Z,6.18
2023-04-25T00:26:41.755Z,4.47
2023-04-25T00:29:08.868Z,4.43
2023-04-25T00:31:36.029Z,4.85
2023-04-25T00:34:03.285Z,4.32
2023-04-25T00:36:31.020Z,3.97
2023-04-25T00:38:58.247Z,4.40
2023-04-25T00:41:26.116Z,4.45
2023-04-25T00:43:53.518Z,5.70
2023-04-25T00:46:20.887Z,5.22
2023-04-25T00:48:48.076Z,4.75
2023-04-25T00:51:20.566Z,4.70
2023-04-25T00:53:47.728Z,4.80
2023-04-25T00:56:14.928Z,5.78
2023-04-25T00:58:42.157Z,4.43
2023-04-25T01:01:09.314Z,5.88
2023-04-25T01:03:36.929Z,7.75
2023-04-25T01:06:04.287Z,7.80
2023-04-25T01:08:31.396Z,6.80
2023-04-25T01:10:58.490Z,6.93
2023-04-25T01:13:25.682Z,6.10
2023-04-25T01:15:52.833Z,5.30
2023-04-25T01:18:21.521Z,5.38
2023-04-25T01:20:48.879Z,16.08
2023-04-25T01:23:15.987Z,14.48
2023-04-25T01:25:43.082Z,10.40
2023-04-25T01:28:10.208Z,8.93
2023-04-25T01:30:37.379Z,6.82
2023-04-25T01:33:05.664Z,7.93
2023-04-25T01:35:32.938Z,4.93
2023-04-25T01:38:00.020Z,4.57
2023-04-25T01:40:27.122Z,4.78
2023-04-25T01:42:54.253Z,4.88
2023-04-25T01:45:21.381Z,4.93
2023-04-25T01:47:50.461Z,5.35
2023-04-25T01:50:18.057Z,5.40
2023-04-25T01:52:45.442Z,5.63
2023-04-25T01:55:12.689Z,5.28
2023-04-25T01:57:40.639Z,5.35
2023-04-25T02:00:08.149Z,7.97
2023-04-25T02:02:35.418Z,8.00
2023-04-25T02:05:02.723Z,10.40
2023-04-25T02:07:29.856Z,7.90
2023-04-25T02:09:57.128Z,9.30
2023-04-25T02:12:24.295Z,7.88
2023-04-25T02:14:51.420Z,7.20
2023-04-25T02:17:18.812Z,8.13
2023-04-25T02:19:46.052Z,8.23
2023-04-25T02:22:13.172Z,8.93
2023-04-25T02:24:40.420Z,7.95
2023-04-25T02:27:08.789Z,7.93
2023-04-25T02:29:36.203Z,10.88
2023-04-25T02:32:03.359Z,10.90
2023-04-25T02:34:30.497Z,13.13
2023-04-25T02:36:57.654Z,8.15
2023-04-25T02:39:26.100Z,7.75
2023-04-25T02:41:53.515Z,7.68
2023-04-25T02:44:21.017Z,8.18
2023-04-25T02:46:48.126Z,8.00
2023-04-25T02:49:15.674Z,7.50
2023-04-25T02:51:42.997Z,7.85
2023-04-25T02:54:10.123Z,9.23
2023-04-25T02:56:37.248Z,9.00
2023-04-25T02:59:04.401Z,6.90
2023-04-25T03:01:31.582Z,7.30
2023-04-25T03:03:58.784Z,7.55
2023-04-25T03:06:26.026Z,8.07
2023-04-25T03:08:53.148Z,6.95
2023-04-25T03:11:21.250Z,7.18
2023-04-25T03:13:48.535Z,7.90
2023-04-25T03:16:16.619Z,6.93
2023-04-25T03:18:43.787Z,10.23
2023-04-25T03:21:10.907Z,9.90
2023-04-25T03:23:38.037Z,6.68
2023-04-25T03:26:06.146Z,7.57
2023-04-25T03:28:33.332Z,7.82
2023-04-25T03:31:00.611Z,6.75
2023-04-25T03:33:27.865Z,6.13
2023-04-25T03:35:55.037Z,5.60
2023-04-25T03:38:22.133Z,6.07
2023-04-25T03:40:49.268Z,6.07
2023-04-25T03:43:16.549Z,6.20
2023-04-25T03:45:44.283Z,6.00
2023-04-25T03:48:11.513Z,5.50
2023-04-25T03:50:38.626Z,5.25
2023-04-25T03:53:05.879Z,5.03
2023-04-25T03:55:33.070Z,5.65
2023-04-25T03:58:00.206Z,4.68
2023-04-25T04:00:27.383Z,5.65
2023-04-25T04:02:54.684Z,6.63
2023-04-25T04:05:22.322Z,5.47
2023-04-25T04:07:49.494Z,2.75
2023-04-25T04:10:16.649Z,3.00
2023-04-25T04:12:43.757Z,3.30
2023-04-25T04:15:11.189Z,2.65
2023-04-25T04:17:38.389Z,2.97
2023-04-25T04:20:06.760Z,3.38
2023-04-25T04:22:33.971Z,2.95
2023-04-25T04:25:01.118Z,4.22
2023-04-25T04:27:29.720Z,3.33
2023-04-25T04:29:57.125Z,4.57
2023-04-25T04:32:24.774Z,4.57
2023-04-25T04:34:53.133Z,6.40
2023-04-25T04:37:20.426Z,4.60
2023-04-25T04:39:48.038Z,6.30
2023-04-25T04:42:15.177Z,4.70
2023-04-25T04:44:42.525Z,3.63
2023-04-25T04:47:11.715Z,3.22
2023-04-25T04:49:38.805Z,3.90
2023-04-25T04:52:06.108Z,2.95
2023-04-25T04:54:33.278Z,3.13
2023-04-25T04:57:00.511Z,3.65
2023-04-25T04:59:27.670Z,6.38
2023-04-25T05:01:54.857Z,3.40
2023-04-25T05:04:22.088Z,3.85
2023-04-25T05:06:49.391Z,7.00
2023-04-25T05:09:16.583Z,7.53
2023-04-25T05:11:43.681Z,5.72
2023-04-25T05:14:10.861Z,6.78
2023-04-25T05:16:38.053Z,6.57
2023-04-25T05:19:05.202Z,7.20
2023-04-25T05:21:32.462Z,6.70
2023-04-25T05:23:59.729Z,6.65
2023-04-25T05:26:26.926Z,6.55
2023-04-25T05:28:54.068Z,5.53
2023-04-25T05:31:21.285Z,6.60
2023-04-25T05:33:48.569Z,6.70
2023-04-25T05:36:15.911Z,6.47
2023-04-25T05:38:44.031Z,5.95
2023-04-25T05:41:11.134Z,15.57
2023-04-25T05:43:38.261Z,18.80
2023-04-25T05:46:05.509Z,5.80
2023-04-25T05:48:32.696Z,5.38
2023-04-25T05:50:59.831Z,5.97
2023-04-25T05:53:26.976Z,6.57
2023-04-25T05:55:54.151Z,21.88
2023-04-25T05:58:21.300Z,15.25
2023-04-25T06:00:48.433Z,15.32
2023-04-25T06:03:20.455Z,9.07
2023-04-25T06:05:48.216Z,5.28
2023-04-25T06:08:15.430Z,6.68
2023-04-25T06:10:42.641Z,4.03
2023-04-25T06:13:09.752Z,4.15
2023-04-25T06:15:36.953Z,5.50
2023-04-25T06:18:04.156Z,4.47
2023-04-25T06:20:31.320Z,6.72
2023-04-25T06:22:58.459Z,9.07
2023-04-25T06:25:25.573Z,9.88
2023-04-25T06:27:52.698Z,9.55
2023-04-25T06:30:23.488Z,9.15
2023-04-25T06:32:50.793Z,6.57
2023-04-25T06:35:18.058Z,6.00
2023-04-25T06:37:45.540Z,6.53
2023-04-25T06:40:12.659Z,9.60
2023-04-25T06:42:39.763Z,10.70
2023-04-25T06:45:07.292Z,6.07
2023-04-25T06:47:34.456Z,16.25
2023-04-25T06:50:01.663Z,10.30
2023-04-25T06:52:28.809Z,12.68
2023-04-25T06:54:55.966Z,9.25
2023-04-25T06:57:23.059Z,4.30
2023-04-25T06:59:50.296Z,5.97
2023-04-25T07:02:17.479Z,5.60
2023-04-25T07:04:46.245Z,23.58
2023-04-25T07:07:13.469Z,14.48
2023-04-25T07:09:40.754Z,7.43
2023-04-25T07:12:07.951Z,6.10
2023-04-25T07:14:35.161Z,9.23
2023-04-25T07:17:02.300Z,5.35
2023-04-25T07:19:30.754Z,8.52
2023-04-25T07:21:57.985Z,5.35
2023-04-25T07:24:25.146Z,4.43
2023-04-25T07:26:52.395Z,3.97
2023-04-25T07:29:19.608Z,3.63
2023-04-25T07:31:46.816Z,3.90
2023-04-25T07:34:13.985Z,3.60
2023-04-25T07:36:41.192Z,3.65
2023-04-25T07:39:10.111Z,4.30
2023-04-25T07:41:37.247Z,4.10
2023-04-25T07:44:04.572Z,4.22
2023-04-25T07:46:31.812Z,4.40
2023-04-25T07:48:58.989Z,5.38
2023-04-25T07:51:26.933Z,5.95
2023-04-25T07:53:54.162Z,5.97
2023-04-25T07:56:21.365Z,5.43
2023-04-25T07:58:48.564Z,6.10
2023-04-25T08:01:15.899Z,5.80
2023-04-25T08:03:43.257Z,5.80
2023-04-25T08:06:11.080Z,6.43
2023-04-25T08:08:38.444Z,6.40
2023-04-25T08:11:05.590Z,7.28
2023-04-25T08:13:32.723Z,7.18
2023-04-25T08:15:59.899Z,7.53
2023-04-25T08:18:27.369Z,6.57
2023-04-25T08:20:54.535Z,5.88
2023-04-25T08:23:21.654Z,5.43
2023-04-25T08:25:48.758Z,7.55
2023-04-25T08:28:16.213Z,9.00
2023-04-25T08:30:43.392Z,7.63
2023-04-25T08:35:39.512Z,8.20
2023-04-25T08:38:07.346Z,8.85
2023-04-25T08:40:34.801Z,15.70
2023-04-25T08:43:01.989Z,7.55
2023-04-25T08:45:29.135Z,11.82
2023-04-25T08:47:57.998Z,11.63
2023-04-25T08:50:27.259Z,9.45
2023-04-25T08:52:54.926Z,11.05
2023-04-25T08:55:22.323Z,6.00
2023-04-25T08:57:49.700Z,7.38
2023-04-25T09:00:16.961Z,9.38
2023-04-25T09:02:45.107Z,7.68
2023-04-25T09:05:14.536Z,7.22
2023-04-25T09:07:41.699Z,11.43
2023-04-25T09:10:09.138Z,18.65
2023-04-25T09:12:36.861Z,11.32
2023-04-25T09:15:05.055Z,10.65
2023-04-25T09:17:32.232Z,10.80
2023-04-25T09:20:12.329Z,6.95
2023-04-25T09:22:39.491Z,8.20
2023-04-25T09:25:10.309Z,7.95
2023-04-25T09:27:37.500Z,8.75
2023-04-25T09:30:04.862Z,9.80
2023-04-25T09:32:32.069Z,5.90
2023-04-25T09:34:59.419Z,5.63
2023-04-25T09:37:30.549Z,6.03
2023-04-25T09:40:02.762Z,7.05
2023-04-25T09:42:32.354Z,8.60
2023-04-25T09:45:00.152Z,6.90
2023-04-25T09:47:27.913Z,6.30
2023-04-25T09:49:56.018Z,6.63
2023-04-25T09:52:25.930Z,7.35
2023-04-25T09:54:53.464Z,5.43
2023-04-25T09:57:22.025Z,4.65
2023-04-25T09:59:52.632Z,5.10
2023-04-25T10:02:21.511Z,6.40
2023-04-25T10:04:53.877Z,7.40
2023-04-25T10:07:22.409Z,8.20
2023-04-25T10:09:53.252Z,7.68
2023-04-25T10:12:21.047Z,6.70
2023-04-25T10:14:48.166Z,6.30
2023-04-25T10:17:15.271Z,4.70
2023-04-25T10:19:42.414Z,4.85
2023-04-25T10:22:10.036Z,5.32
2023-04-25T10:24:38.159Z,5.38
2023-04-25T10:27:05.427Z,5.00
2023-04-25T10:29:32.560Z,8.27
2023-04-25T10:31:59.811Z,8.63
2023-04-25T10:34:39.957Z,6.25
2023-04-25T10:37:07.948Z,8.10
2023-04-25T10:39:35.265Z,5.32
2023-04-25T10:42:03.359Z,4.88
2023-04-25T10:44:31.027Z,5.00
2023-04-25T10:47:01.378Z,4.78
2023-04-25T10:49:34.950Z,88.32
2023-04-25T10:52:20.479Z,7.50
2023-04-25T10:54:53.145Z,5.70
2023-04-25T10:57:48.431Z,6.50
2023-04-25T11:00:16.958Z,4.38
2023-04-25T11:02:46.244Z,5.15
2023-04-25T11:05:36.420Z,4.82
2023-04-25T11:08:08.330Z,4.75
2023-04-25T11:10:39.070Z,5.72
2023-04-25T11:13:06.300Z,5.18
2023-04-25T11:15:33.536Z,5.35
2023-04-25T11:18:00.822Z,6.25
2023-04-25T11:20:29.675Z,5.50
2023-04-25T11:22:58.943Z,5.28
2023-04-25T11:25:29.782Z,5.55
2023-04-25T11:27:58.232Z,5.32
2023-04-25T11:30:25.641Z,5.97
2023-04-25T11:32:55.914Z,5.70
2023-04-25T11:35:26.710Z,5.28
2023-04-25T11:37:53.959Z,4.93
2023-04-25T11:40:21.099Z,4.78
2023-04-25T11:42:48.475Z,4.93
2023-04-25T11:45:15.872Z,5.43
2023-04-25T11:47:43.155Z,6.20
2023-04-25T11:50:10.870Z,5.43
2023-04-25T11:52:38.095Z,4.85
2023-04-25T11:55:11.917Z,5.50
2023-04-25T11:57:42.478Z,6.07
2023-04-25T12:00:16.576Z,5.65
2023-04-25T12:02:46.080Z,5.80
2023-04-25T12:05:30.582Z,6.18
2023-04-25T12:07:59.542Z,5.88
2023-04-25T12:10:27.086Z,6.85
2023-04-25T12:12:55.104Z,6.57
2023-04-25T12:15:26.232Z,5.93
2023-04-25T12:17:54.038Z,6.15
2023-04-25T12:20:22.083Z,5.82
2023-04-25T12:22:49.763Z,5.90
2023-04-25T12:25:36.381Z,6.10
2023-04-25T12:28:13.191Z,5.93
2023-04-25T12:30:56.122Z,5.80
2023-04-25T12:33:23.882Z,6.20
2023-04-25T12:35:51.068Z,6.88
2023-04-25T12:38:24.754Z,7.72
2023-04-25T12:40:51.953Z,8.10
2023-04-25T12:43:19.235Z,8.65
2023-04-25T12:45:46.925Z,10.68
2023-04-25T12:48:14.027Z,8.15
2023-04-25T12:50:42.076Z,7.05
2023-04-25T12:53:09.298Z,6.93
2023-04-25T12:55:36.390Z,7.18
2023-04-25T12:58:04.107Z,7.53
2023-04-25T13:00:32.707Z,7.50
2023-04-25T13:03:00.278Z,7.60
2023-04-25T13:05:27.626Z,8.00
2023-04-25T13:07:54.781Z,8.48
2023-04-25T13:10:22.229Z,8.98
2023-04-25T13:12:49.337Z,8.80
2023-04-25T13:15:16.799Z,7.53
2023-04-25T13:17:43.997Z,8.63
2023-04-25T13:20:11.371Z,10.25
2023-04-25T13:22:41.622Z,9.07
2023-04-25T13:25:09.266Z,10.60
2023-04-25T13:27:37.345Z,9.90
2023-04-25T13:30:08.296Z,9.27
2023-04-25T13:32:38.849Z,8.35
2023-04-25T13:35:10.867Z,7.40
2023-04-25T13:37:38.612Z,6.88
2023-04-25T13:40:07.384Z,6.85
2023-04-25T13:42:34.595Z,6.30
2023-04-25T13:45:01.705Z,6.18
2023-04-25T13:47:29.002Z,8.40
2023-04-25T13:49:56.159Z,7.70
2023-04-25T13:52:25.028Z,5.85
2023-04-25T13:54:52.224Z,4.68
2023-04-25T13:57:19.571Z,7.65
2023-04-25T13:59:47.678Z,5.32
2023-04-25T14:02:14.880Z,6.70
2023-04-25T14:04:42.488Z,4.80
2023-04-25T14:07:09.786Z,5.57
2023-04-25T14:09:36.936Z,5.30
2023-04-25T14:12:04.524Z,6.68
2023-04-25T14:14:31.662Z,6.95
2023-04-25T14:16:58.849Z,3.85
2023-04-25T14:19:26.179Z,3.78
2023-04-25T14:21:53.302Z,5.95
2023-04-25T14:24:20.496Z,3.92
2023-04-25T14:26:47.736Z,6.75
2023-04-25T14:29:14.940Z,7.53
2023-04-25T14:31:42.073Z,7.00
2023-04-25T14:34:09.384Z,10.13
2023-04-25T14:36:37.324Z,6.00
2023-04-25T14:39:06.251Z,5.28
2023-04-25T14:41:33.772Z,4.30
2023-04-25T14:44:00.929Z,4.93
2023-04-25T14:46:28.097Z,4.53
2023-04-25T14:48:56.987Z,3.50
2023-04-25T14:51:24.217Z,4.22
2023-04-25T14:53:52.244Z,3.97
2023-04-25T14:56:19.860Z,2.85
2023-04-25T14:58:47.226Z,3.08
2023-04-25T15:01:14.811Z,4.40
2023-04-25T15:03:42.212Z,8.05
2023-04-25T15:06:09.731Z,4.70
2023-04-25T15:08:37.163Z,5.38
2023-04-25T15:11:04.528Z,3.53
2023-04-25T15:13:31.668Z,3.15
2023-04-25T15:15:58.823Z,5.53
2023-04-25T15:18:26.303Z,10.05
2023-04-25T15:20:53.607Z,9.63
2023-04-25T15:23:20.910Z,6.20
2023-04-25T15:25:48.287Z,10.45
2023-04-25T15:28:16.909Z,8.82
2023-04-25T15:30:44.712Z,17.52
2023-04-25T15:33:12.037Z,13.05
2023-04-25T15:35:39.268Z,3.72
2023-04-25T15:38:06.656Z,4.72
2023-04-25T15:40:33.840Z,7.10
2023-04-25T15:43:00.973Z,5.82
2023-04-25T15:45:28.216Z,4.10
2023-04-25T15:47:56.116Z,6.35
2023-04-25T15:50:23.347Z,6.18
2023-04-25T15:52:50.925Z,9.40
2023-04-25T15:55:18.713Z,6.88
2023-04-25T15:57:46.090Z,7.93
2023-04-25T16:00:13.579Z,12.90
2023-04-25T16:02:41.348Z,8.25
2023-04-25T16:05:09.166Z,6.82
2023-04-25T16:07:36.804Z,8.13
2023-04-25T16:10:04.198Z,54.58
2023-04-25T16:12:31.423Z,20.65
2023-04-25T16:14:58.668Z,7.97
2023-04-25T16:17:26.374Z,13.23
2023-04-25T16:19:53.486Z,8.23
2023-04-25T16:22:20.596Z,12.50
2023-04-25T16:24:47.766Z,10.02
2023-04-25T16:27:15.022Z,5.97
2023-04-25T16:29:42.463Z,8.70
2023-04-25T16:32:09.617Z,7.32
2023-04-25T16:34:36.977Z,6.95
2023-04-25T16:37:04.527Z,5.28
2023-04-25T16:39:31.677Z,6.40
2023-04-25T16:41:58.777Z,6.32
2023-04-25T16:44:25.905Z,5.78
2023-04-25T16:46:53.102Z,8.73
2023-04-25T16:49:20.283Z,9.18
2023-04-25T16:51:47.474Z,11.93
2023-04-25T16:54:14.632Z,7.10
2023-04-25T16:56:41.741Z,31.67
2023-04-25T16:59:08.905Z,45.38
2023-04-25T17:01:36.713Z,17.63
2023-04-25T17:04:04.067Z,12.57
2023-04-25T17:06:31.264Z,102.13
2023-04-25T17:08:58.422Z,46.72
2023-04-25T17:11:25.535Z,52.03
2023-04-25T17:13:52.637Z,35.63
2023-04-25T17:16:23.006Z,18.55
2023-04-25T17:18:53.790Z,20.00
2023-04-25T17:21:21.211Z,26.85
2023-04-25T17:23:48.553Z,28.05
2023-04-25T17:26:15.874Z,32.78
2023-04-25T17:28:45.047Z,35.42
2023-04-25T17:31:12.408Z,45.08
2023-04-25T17:33:39.636Z,47.65
2023-04-25T17:36:07.168Z,13.10
2023-04-25T17:38:35.666Z,22.80
2023-04-25T17:41:02.972Z,18.80
2023-04-25T17:43:30.130Z,27.02
2023-04-25T17:45:57.365Z,29.90
2023-04-25T17:48:24.918Z,10.75
2023-04-25T17:50:52.095Z,33.25
2023-04-25T17:53:19.277Z,32.92
2023-04-25T17:55:46.396Z,36.78
2023-04-25T17:58:13.533Z,21.23
2023-04-25T18:00:41.150Z,10.60
2023-04-25T18:03:08.390Z,13.13
2023-04-25T18:05:36.026Z,19.77
2023-04-25T18:08:03.407Z,36.00
2023-04-25T18:10:31.144Z,33.92
2023-04-25T18:12:58.252Z,30.38
2023-04-25T18:15:26.408Z,26.52
2023-04-25T18:17:54.673Z,25.55
2023-04-25T18:20:22.228Z,28.05
2023-04-25T18:22:49.417Z,29.65
2023-04-25T18:25:17.045Z,31.00
2023-04-25T18:27:45.517Z,30.80
2023-04-25T18:30:13.738Z,32.38
2023-04-25T18:32:40.970Z,30.27
2023-04-25T18:35:10.187Z,34.63
2023-04-25T18:37:40.180Z,42.30
2023-04-25T18:40:10.066Z,38.65
2023-04-25T18:42:37.959Z,35.28
2023-04-25T18:45:05.600Z,42.83
2023-04-25T18:47:32.794Z,41.25
2023-04-25T18:49:59.963Z,40.05
2023-04-25T18:52:27.225Z,29.98
2023-04-25T18:54:54.336Z,36.45
2023-04-25T18:57:21.631Z,44.88
2023-04-25T18:59:48.902Z,31.48
2023-04-25T19:02:16.595Z,32.28
2023-04-25T19:04:44.075Z,30.90
2023-04-25T19:07:11.275Z,28.52
2023-04-25T19:09:38.382Z,28.52
2023-04-25T19:12:05.611Z,28.02
2023-04-25T19:14:33.661Z,24.50
2023-04-25T19:17:01.021Z,24.75
2023-04-25T19:19:28.332Z,24.73
2023-04-25T19:21:55.548Z,25.63
2023-04-25T19:24:22.699Z,24.63
2023-04-25T19:26:49.813Z,19.55
2023-04-25T19:29:18.061Z,18.35
2023-04-25T19:31:45.892Z,19.83
2023-04-25T19:34:13.145Z,21.27
2023-04-25T19:36:40.692Z,19.90
2023-04-25T19:39:07.890Z,20.20
2023-04-25T19:41:38.952Z,21.27
2023-04-25T19:44:07.347Z,20.15
2023-04-25T19:46:34.968Z,21.23
2023-04-25T19:49:03.153Z,21.48
2023-04-25T19:51:31.962Z,23.58
2023-04-25T19:53:59.142Z,24.17
2023-04-25T19:56:26.568Z,22.67
2023-04-25T19:58:54.083Z,25.70
2023-04-25T20:01:24.330Z,27.83
2023-04-25T20:03:52.081Z,27.25
2023-04-25T20:06:19.547Z,27.65
2023-04-25T20:08:47.242Z,28.10
2023-04-25T20:11:14.961Z,28.40
2023-04-25T20:13:42.251Z,26.52
2023-04-25T20:16:09.416Z,30.92
2023-04-25T20:18:36.602Z,34.88
2023-04-25T20:21:03.889Z,36.08
2023-04-25T20:23:31.020Z,33.05
2023-04-25T20:25:58.152Z,32.80
2023-04-25T20:28:26.978Z,34.22
2023-04-25T20:30:54.139Z,34.35
2023-04-25T20:33:22.192Z,45.10
2023-04-25T20:35:49.540Z,35.95
2023-04-25T20:38:17.126Z,32.63
2023-04-25T20:40:44.242Z,31.70
2023-04-25T20:43:12.587Z,34.67
2023-04-25T20:45:40.092Z,34.88
2023-04-25T20:48:07.318Z,41.17
2023-04-25T20:50:34.506Z,28.58
2023-04-25T20:53:02.514Z,35.05
2023-04-25T20:55:29.604Z,23.42
2023-04-25T20:57:57.664Z,28.35
2023-04-25T21:00:29.533Z,27.40
2023-04-25T21:02:57.894Z,28.50
2023-04-25T21:05:25.201Z,24.92
2023-04-25T21:07:52.389Z,28.05
2023-04-25T21:10:19.578Z,26.50
2023-04-25T21:12:49.965Z,19.13
2023-04-25T21:15:19.421Z,15.70
2023-04-25T21:17:50.021Z,16.00
2023-04-25T21:20:20.761Z,15.45
2023-04-25T21:22:54.258Z,13.18
2023-04-25T21:25:29.042Z,12.85
2023-04-25T21:27:56.304Z,11.95
2023-04-25T21:30:23.931Z,15.07
2023-04-25T21:32:51.418Z,17.65
2023-04-25T21:35:19.410Z,12.52
2023-04-25T21:37:46.732Z,10.40
2023-04-25T21:40:14.268Z,6.75
2023-04-25T21:42:42.329Z,7.03
2023-04-25T21:45:10.060Z,6.90
2023-04-25T21:47:37.345Z,7.40
2023-04-25T21:50:04.753Z,6.88
2023-04-25T21:52:32.009Z,7.68
2023-04-25T21:54:59.173Z,6.85
2023-04-25T21:57:26.378Z,6.20
2023-04-25T21:59:53.601Z,6.22
2023-04-25T22:02:20.969Z,6.18
2023-04-25T22:04:48.497Z,6.43
2023-04-25T22:07:16.010Z,5.88
2023-04-25T22:09:53.699Z,6.88
2023-04-25T22:12:23.274Z,7.05
2023-04-25T22:14:50.922Z,8.02
2023-04-25T22:17:18.795Z,5.60
2023-04-25T22:19:46.990Z,9.10
2023-04-25T22:22:14.165Z,7.03
2023-04-25T22:24:42.157Z,6.88
2023-04-25T22:27:10.997Z,6.75
2023-04-25T22:29:38.173Z,6.63
2023-04-25T22:32:05.370Z,5.97
2023-04-25T22:34:32.466Z,5.43
2023-04-25T22:36:59.719Z,6.15
2023-04-25T22:39:26.913Z,4.85
2023-04-25T22:41:54.422Z,5.00
2023-04-25T22:44:22.372Z,4.63
2023-04-25T22:46:49.535Z,5.47
2023-04-25T22:49:17.206Z,4.80
2023-04-25T22:51:44.391Z,4.43
2023-04-25T22:54:11.488Z,4.97
2023-04-25T22:56:38.583Z,4.05
2023-04-25T22:59:06.513Z,4.38
2023-04-25T23:01:33.665Z,3.90
2023-04-25T23:04:01.167Z,3.88
2023-04-25T23:06:28.804Z,4.97
2023-04-25T23:08:55.967Z,8.88
2023-04-25T23:11:23.856Z,4.47
2023-04-25T23:13:51.508Z,5.85
2023-04-25T23:16:18.716Z,4.97
2023-04-25T23:18:46.511Z,4.90
2023-04-25T23:21:13.710Z,5.50
2023-04-25T23:23:40.837Z,4.80
2023-04-25T23:26:08.710Z,5.13
2023-04-25T23:28:35.918Z,5.75
2023-04-25T23:31:06.214Z,4.68
2023-04-25T23:33:33.430Z,6.53
2023-04-25T23:36:00.686Z,4.20
2023-04-25T23:38:27.986Z,5.68
2023-04-25T23:40:56.226Z,6.07
2023-04-25T23:43:23.400Z,6.72
2023-04-25T23:45:50.583Z,6.43
2023-04-25T23:48:17.738Z,7.18
2023-04-25T23:50:44.900Z,10.05
2023-04-25T23:53:12.009Z,9.40
2023-04-25T23:55:39.181Z,6.70
2023-04-25T23:58:06.382Z,6.32
